createdAt,value
2023-02-04T00:00:23.762Z,98391.38
2023-02-04T00:02:51.146Z,98384.53
2023-02-04T00:05:19.203Z,98378.13
2023-02-04T00:07:46.472Z,98383.41
2023-02-04T00:10:13.992Z,98376.25
2023-02-04T00:12:41.009Z,98385.59
2023-02-04T00:15:08.414Z,98389.81
2023-02-04T00:17:35.726Z,98386.50
2023-02-04T00:20:02.896Z,98387.72
2023-02-04T00:22:29.978Z,98393.66
2023-02-04T00:24:57.276Z,98391.25
2023-02-04T00:27:24.338Z,98399.66
2023-02-04T00:29:51.412Z,98390.97
2023-02-04T00:32:18.963Z,98398.13
2023-02-04T00:34:46.849Z,98400.44
2023-02-04T00:37:13.995Z,98402.81
2023-02-04T00:39:41.335Z,98396.06
2023-02-04T00:42:09.313Z,98398.16
2023-02-04T00:44:36.755Z,98392.56
2023-02-04T00:47:05.183Z,98386.25
2023-02-04T00:49:34.421Z,98374.84
2023-02-04T00:52:01.647Z,98365.47
2023-02-04T00:54:29.407Z,98372.47
2023-02-04T00:56:56.445Z,98355.31
2023-02-04T00:59:23.707Z,98363.06
2023-02-04T01:01:51.726Z,98352.63
2023-02-04T01:04:18.967Z,98352.72
2023-02-04T01:06:46.160Z,98346.37
2023-02-04T01:09:13.650Z,98341.09
2023-02-04T01:11:40.902Z,98335.41
2023-02-04T01:14:08.025Z,98330.03
2023-02-04T01:16:35.518Z,98331.81
2023-02-04T01:19:02.707Z,98336.69
2023-02-04T01:21:29.991Z,98327.84
2023-02-04T01:23:57.393Z,98324.25
2023-02-04T01:26:24.501Z,98326.63
2023-02-04T01:28:51.610Z,98321.25
2023-02-04T01:31:19.571Z,98322.72
2023-02-04T01:33:49.143Z,98331.94
2023-02-04T01:36:21.601Z,98327.69
2023-02-04T01:38:49.912Z,98335.94
2023-02-04T01:41:17.775Z,98331.72
2023-02-04T01:43:46.693Z,98329.84
2023-02-04T01:46:14.832Z,98331.72
2023-02-04T01:48:41.986Z,98323.84
2023-02-04T01:51:11.480Z,98332.75
2023-02-04T01:53:39.421Z,98325.50
2023-02-04T01:56:16.744Z,98336.50
2023-02-04T01:58:44.779Z,98336.06
2023-02-04T02:01:14.654Z,98332.22
2023-02-04T02:03:42.870Z,98338.44
2023-02-04T02:06:10.624Z,98335.03
2023-02-04T02:08:38.014Z,98335.62
2023-02-04T02:11:05.725Z,98336.47
2023-02-04T02:13:32.842Z,98342.47
2023-02-04T02:16:00.902Z,98332.94
2023-02-04T02:18:28.030Z,98336.16
2023-02-04T02:20:55.647Z,98347.25
2023-02-04T02:23:44.951Z,98338.34
2023-02-04T02:26:13.138Z,98342.56
2023-02-04T02:28:40.619Z,98342.28
2023-02-04T02:31:08.361Z,98337.09
2023-02-04T02:33:36.987Z,98338.63
2023-02-04T02:36:04.862Z,98338.00
2023-02-04T02:38:32.213Z,98332.09
2023-02-04T02:41:01.068Z,98338.72
2023-02-04T02:43:29.049Z,98339.69
2023-02-04T02:46:00.284Z,98328.38
2023-02-04T02:48:27.498Z,98326.31
2023-02-04T02:50:55.195Z,98328.03
2023-02-04T02:53:22.438Z,98314.69
2023-02-04T02:55:50.959Z,98314.47
2023-02-04T02:58:32.233Z,98310.31
2023-02-04T03:01:05.606Z,98319.56
2023-02-04T03:03:36.755Z,98310.53
2023-02-04T03:06:20.509Z,98309.69
2023-02-04T03:08:55.181Z,98311.47
2023-02-04T03:11:22.285Z,98304.50
2023-02-04T03:13:51.892Z,98314.97
2023-02-04T03:16:19.373Z,98317.78
2023-02-04T03:18:46.487Z,98308.53
2023-02-04T03:21:14.755Z,98313.12
2023-02-04T03:23:41.841Z,98294.97
2023-02-04T03:26:08.902Z,98286.03
2023-02-04T03:28:40.762Z,98291.00
2023-02-04T03:31:08.327Z,98281.59
2023-02-04T03:33:36.023Z,98296.19
2023-02-04T03:36:03.616Z,98282.28
2023-02-04T03:38:30.892Z,98291.75
2023-02-04T03:40:57.961Z,98287.59
2023-02-04T03:43:25.251Z,98282.62
2023-02-04T03:45:52.387Z,98286.87
2023-02-04T03:48:19.461Z,98268.00
2023-02-04T03:50:46.772Z,98252.88
2023-02-04T03:53:13.802Z,98262.44
2023-02-04T03:55:40.802Z,98252.88
2023-02-04T03:58:08.114Z,98264.09
2023-02-04T04:00:35.136Z,98259.62
2023-02-04T04:03:02.450Z,98261.72
2023-02-04T04:05:29.575Z,98272.78
2023-02-04T04:07:56.798Z,98271.87
2023-02-04T04:10:25.210Z,98261.28
2023-02-04T04:12:52.168Z,98262.53
2023-02-04T04:15:19.168Z,98250.91
2023-02-04T04:17:49.658Z,98262.91
2023-02-04T04:20:16.842Z,98266.03
2023-02-04T04:22:45.847Z,98250.59
2023-02-04T04:25:13.190Z,98260.09
2023-02-04T04:27:40.283Z,98251.78
2023-02-04T04:30:07.682Z,98262.16
2023-02-04T04:32:34.979Z,98254.72
2023-02-04T04:35:02.023Z,98250.88
2023-02-04T04:37:29.151Z,98256.16
2023-02-04T04:39:56.467Z,98248.78
2023-02-04T04:42:23.594Z,98246.09
2023-02-04T04:44:50.668Z,98250.94
2023-02-04T04:47:18.008Z,98243.62
2023-02-04T04:49:45.070Z,98253.75
2023-02-04T04:52:12.084Z,98236.78
2023-02-04T04:54:39.418Z,98231.72
2023-02-04T04:57:06.454Z,98213.78
2023-02-04T04:59:33.485Z,98219.94
2023-02-04T05:02:00.826Z,98211.63
2023-02-04T05:04:28.015Z,98194.75
2023-02-04T05:06:55.180Z,98206.34
2023-02-04T05:09:22.569Z,98202.72
2023-02-04T05:11:50.331Z,98192.22
2023-02-04T05:14:17.357Z,98192.34
2023-02-04T05:16:44.794Z,98185.03
2023-02-04T05:19:12.013Z,98189.75
2023-02-04T05:21:39.158Z,98186.00
2023-02-04T05:24:06.562Z,98188.47
2023-02-04T05:26:33.691Z,98189.63
2023-02-04T05:29:00.764Z,98175.62
2023-02-04T05:31:28.463Z,98205.31
2023-02-04T05:33:55.651Z,98206.00
2023-02-04T05:36:22.827Z,98212.75
2023-02-04T05:38:50.155Z,98215.34
2023-02-04T05:41:17.216Z,98219.09
2023-02-04T05:43:44.346Z,98225.44
2023-02-04T05:46:11.764Z,98241.19
2023-02-04T05:48:40.193Z,98250.38
2023-02-04T05:51:07.399Z,98274.91
2023-02-04T05:53:34.817Z,98258.38
2023-02-04T05:56:01.938Z,98252.38
2023-02-04T05:58:33.647Z,98288.63
2023-02-04T06:01:01.703Z,98283.12
2023-02-04T06:03:29.686Z,98279.72
2023-02-04T06:05:57.089Z,98291.00
2023-02-04T06:08:24.414Z,98304.56
2023-02-04T06:10:51.859Z,98330.03
2023-02-04T06:13:18.915Z,98311.41
2023-02-04T06:15:45.968Z,98322.38
2023-02-04T06:18:14.037Z,98334.50
2023-02-04T06:20:41.088Z,98311.09
2023-02-04T06:23:08.193Z,98323.59
2023-02-04T06:25:36.514Z,98326.28
2023-02-04T06:28:04.167Z,98309.28
2023-02-04T06:30:31.824Z,98340.34
2023-02-04T06:32:59.470Z,98321.50
2023-02-04T06:35:26.500Z,98327.81
2023-02-04T06:40:08.634Z,98315.75
2023-02-04T06:42:36.287Z,98315.75
2023-02-04T06:45:04.131Z,98323.13
2023-02-04T06:47:31.215Z,98309.75
2023-02-04T06:49:58.657Z,98338.75
2023-02-04T06:52:25.700Z,98323.72
2023-02-04T06:54:52.710Z,98329.94
2023-02-04T06:57:20.074Z,98321.56
2023-02-04T06:59:47.260Z,98323.94
2023-02-04T07:02:14.394Z,98339.47
2023-02-04T07:04:43.847Z,98369.59
2023-02-04T07:07:11.468Z,98365.03
2023-02-04T07:09:40.563Z,98371.91
2023-02-04T07:12:07.956Z,98363.28
2023-02-04T07:14:35.144Z,98359.16
2023-02-04T07:17:02.300Z,98377.53
2023-02-04T07:19:29.590Z,98399.81
2023-02-04T07:21:57.188Z,98404.09
2023-02-04T07:24:25.177Z,98379.16
2023-02-04T07:26:52.794Z,98377.87
2023-02-04T07:29:25.048Z,98384.41
2023-02-04T07:31:53.839Z,98372.69
2023-02-04T07:34:21.432Z,98374.53
2023-02-04T07:36:48.615Z,98394.16
2023-02-04T07:39:16.167Z,98420.81
2023-02-04T07:41:43.204Z,98426.94
2023-02-04T07:44:12.161Z,98452.75
2023-02-04T07:46:39.566Z,98438.56
2023-02-04T07:49:06.608Z,98430.09
2023-02-04T07:51:33.632Z,98459.03
2023-02-04T07:54:01.043Z,98493.50
2023-02-04T07:56:28.064Z,98496.62
2023-02-04T07:58:55.170Z,98485.44
2023-02-04T08:01:22.489Z,98503.38
2023-02-04T08:03:49.911Z,98500.03
2023-02-04T08:06:16.901Z,98514.59
2023-02-04T08:08:43.960Z,98517.19
2023-02-04T08:11:11.264Z,98553.69
2023-02-04T08:13:38.234Z,98546.06
2023-02-04T08:16:05.604Z,98550.88
2023-02-04T08:18:33.061Z,98539.50
2023-02-04T08:21:01.562Z,98550.06
2023-02-04T08:23:28.688Z,98544.56
2023-02-04T08:25:56.017Z,98533.03
2023-02-04T08:28:23.071Z,98553.19
2023-02-04T08:30:50.113Z,98542.69
2023-02-04T08:33:17.983Z,98568.63
2023-02-04T08:35:44.964Z,98557.72
2023-02-04T08:38:11.969Z,98590.31
2023-02-04T08:40:39.476Z,98621.47
2023-02-04T08:43:06.865Z,98608.47
2023-02-04T08:45:33.874Z,98593.47
2023-02-04T08:48:01.240Z,98605.87
2023-02-04T08:50:28.886Z,98613.56
2023-02-04T08:52:55.995Z,98606.72
2023-02-04T08:55:23.507Z,98613.22
2023-02-04T08:57:50.713Z,98640.41
2023-02-04T09:00:18.754Z,98630.59
2023-02-04T09:02:46.151Z,98620.81
2023-02-04T09:05:13.237Z,98621.19
2023-02-04T09:07:40.313Z,98652.47
2023-02-04T09:10:08.515Z,98639.28
2023-02-04T09:12:35.562Z,98699.75
2023-02-04T09:15:02.567Z,98662.63
2023-02-04T09:17:29.942Z,98673.72
2023-02-04T09:19:57.129Z,98693.81
2023-02-04T09:22:24.197Z,98702.75
2023-02-04T09:24:51.603Z,98704.03
2023-02-04T09:27:19.725Z,98693.44
2023-02-04T09:29:46.850Z,98716.09
2023-02-04T09:32:14.414Z,98738.94
2023-02-04T09:34:41.482Z,98748.66
2023-02-04T09:37:11.153Z,98756.13
2023-02-04T09:39:38.760Z,98768.16
2023-02-04T09:42:05.866Z,98791.78
2023-02-04T09:44:33.124Z,98807.16
2023-02-04T09:47:01.389Z,98827.44
2023-02-04T09:49:28.768Z,98876.31
2023-02-04T09:51:56.714Z,98859.56
2023-02-04T09:54:24.351Z,98871.69
2023-02-04T09:56:52.564Z,98905.56
2023-02-04T09:59:22.070Z,98901.31
2023-02-04T10:01:59.889Z,98899.09
2023-02-04T10:04:27.826Z,98898.13
2023-02-04T10:06:58.552Z,98927.53
2023-02-04T10:09:25.845Z,98926.47
2023-02-04T10:11:54.095Z,98901.75
2023-02-04T10:14:22.940Z,98934.63
2023-02-04T10:17:00.801Z,98917.09
2023-02-04T10:19:30.490Z,98921.50
2023-02-04T10:21:57.907Z,98870.38
2023-02-04T10:24:26.488Z,98945.31
2023-02-04T10:26:54.809Z,98951.38
2023-02-04T10:29:25.827Z,98938.19
2023-02-04T10:31:53.784Z,98947.47
2023-02-04T10:34:23.425Z,98949.50
2023-02-04T10:36:52.981Z,98985.16
2023-02-04T10:39:22.450Z,98960.31
2023-02-04T10:41:52.003Z,98953.22
2023-02-04T10:44:25.043Z,98964.69
2023-02-04T10:47:03.718Z,98926.50
2023-02-04T10:49:31.146Z,98987.78
2023-02-04T10:51:59.004Z,98978.34
2023-02-04T10:54:48.837Z,99029.66
2023-02-04T10:57:24.930Z,99015.69
2023-02-04T10:59:54.822Z,99005.72
2023-02-04T11:02:43.416Z,99011.19
2023-02-04T11:05:14.439Z,99037.72
2023-02-04T11:07:41.849Z,99017.03
2023-02-04T11:10:14.611Z,99041.00
2023-02-04T11:12:45.154Z,99053.69
2023-02-04T11:15:37.929Z,99091.47
2023-02-04T11:18:11.215Z,99065.63
2023-02-04T11:20:40.668Z,99068.25
2023-02-04T11:23:26.129Z,99060.06
2023-02-04T11:26:07.711Z,99061.03
2023-02-04T11:28:41.179Z,99067.22
2023-02-04T11:31:20.330Z,99068.81
2023-02-04T11:33:49.463Z,99066.44
2023-02-04T11:36:17.346Z,99107.63
2023-02-04T11:38:49.847Z,99101.78
2023-02-04T11:41:24.076Z,99074.09
2023-02-04T11:43:52.288Z,99076.41
2023-02-04T11:46:20.455Z,99121.62
2023-02-04T11:48:55.299Z,99075.19
2023-02-04T11:51:34.089Z,99100.81
2023-02-04T11:54:01.086Z,99159.25
2023-02-04T11:56:29.907Z,99120.06
2023-02-04T11:58:58.487Z,99128.56
2023-02-04T12:01:32.203Z,99146.75
2023-02-04T12:04:03.977Z,99147.72
2023-02-04T12:06:33.797Z,99162.47
2023-02-04T12:09:07.437Z,99142.47
2023-02-04T12:11:35.464Z,99214.78
2023-02-04T12:14:10.172Z,99180.66
2023-02-04T12:16:52.963Z,99179.03
2023-02-04T12:19:20.368Z,99217.97
2023-02-04T12:21:47.509Z,99177.97
2023-02-04T12:24:14.673Z,99189.31
2023-02-04T12:26:42.460Z,99229.44
2023-02-04T12:29:09.785Z,99240.41
2023-02-04T12:31:37.030Z,99226.78
2023-02-04T12:34:04.472Z,99227.06
2023-02-04T12:36:31.546Z,99250.91
2023-02-04T12:38:58.985Z,99229.56
2023-02-04T12:41:26.722Z,99238.41
2023-02-04T12:43:55.638Z,99279.34
2023-02-04T12:46:23.553Z,99268.66
2023-02-04T12:48:50.948Z,99275.34
2023-02-04T12:51:18.320Z,99278.06
2023-02-04T12:53:45.428Z,99265.84
2023-02-04T12:56:12.806Z,99294.41
2023-02-04T12:58:40.120Z,99290.50
2023-02-04T13:01:07.316Z,99285.63
2023-02-04T13:03:34.849Z,99376.00
2023-02-04T13:06:01.963Z,99284.53
2023-02-04T13:08:29.075Z,99291.09
2023-02-04T13:10:56.789Z,99315.81
2023-02-04T13:13:23.852Z,99291.50
2023-02-04T13:15:51.038Z,99290.09
2023-02-04T13:18:18.704Z,99318.50
2023-02-04T13:20:46.170Z,99302.25
2023-02-04T13:23:14.117Z,99318.91
2023-02-04T13:25:41.663Z,99332.28
2023-02-04T13:28:08.784Z,99343.78
2023-02-04T13:30:35.931Z,99384.66
2023-02-04T13:33:03.471Z,99332.91
2023-02-04T13:35:30.988Z,99341.22
2023-02-04T13:37:58.294Z,99370.19
2023-02-04T13:40:25.831Z,99380.84
2023-02-04T13:42:52.857Z,99387.97
2023-02-04T13:45:19.915Z,99388.72
2023-02-04T13:47:48.848Z,99409.53
2023-02-04T13:50:16.776Z,99388.47
2023-02-04T13:52:43.913Z,99407.59
2023-02-04T13:55:11.298Z,99429.47
2023-02-04T13:57:38.439Z,99420.13
2023-02-04T14:00:07.264Z,99447.56
2023-02-04T14:02:39.497Z,99444.22
2023-02-04T14:05:07.202Z,99476.16
2023-02-04T14:07:34.475Z,99445.50
2023-02-04T14:10:01.592Z,99465.47
2023-02-04T14:12:28.987Z,99485.38
2023-02-04T14:14:56.114Z,99465.16
2023-02-04T14:17:23.219Z,99473.25
2023-02-04T14:19:50.640Z,99487.88
2023-02-04T14:22:18.087Z,99495.81
2023-02-04T14:24:47.486Z,99508.72
2023-02-04T14:27:16.383Z,99500.31
2023-02-04T14:29:43.457Z,99525.91
2023-02-04T14:32:10.528Z,99564.31
2023-02-04T14:34:38.050Z,99528.50
2023-02-04T14:37:05.167Z,99549.00
2023-02-04T14:39:32.243Z,99557.56
2023-02-04T14:41:59.659Z,99550.41
2023-02-04T14:44:26.740Z,99541.97
2023-02-04T14:46:53.844Z,99557.56
2023-02-04T14:49:21.490Z,99544.06
2023-02-04T14:51:48.770Z,99552.78
2023-02-04T14:54:16.403Z,99545.94
2023-02-04T14:56:44.617Z,99542.44
2023-02-04T14:59:11.711Z,99540.69
2023-02-04T15:01:38.774Z,99557.06
2023-02-04T15:04:06.475Z,99554.22
2023-02-04T15:06:33.466Z,99561.13
2023-02-04T15:09:01.231Z,99561.41
2023-02-04T15:11:28.510Z,99579.75
2023-02-04T15:13:56.705Z,99585.31
2023-02-04T15:16:23.730Z,99550.44
2023-02-04T15:18:51.133Z,99570.44
2023-02-04T15:21:18.112Z,99576.19
2023-02-04T15:23:47.806Z,99585.41
2023-02-04T15:26:15.141Z,99585.72
2023-02-04T15:28:42.156Z,99587.56
2023-02-04T15:31:09.371Z,99611.09
2023-02-04T15:33:36.780Z,99585.44
2023-02-04T15:36:04.121Z,99570.28
2023-02-04T15:38:31.109Z,99591.94
2023-02-04T15:40:58.500Z,99596.41
2023-02-04T15:43:25.517Z,99593.97
2023-02-04T15:45:52.559Z,99628.47
2023-02-04T15:48:20.149Z,99585.53
2023-02-04T15:50:47.150Z,99643.19
2023-02-04T15:53:14.311Z,99610.69
2023-02-04T15:55:41.609Z,99630.44
2023-02-04T15:58:09.173Z,99634.81
2023-02-04T16:00:36.451Z,99667.66
2023-02-04T16:04:53.870Z,99662.28
2023-02-04T16:07:21.273Z,99662.28
2023-02-04T16:09:48.392Z,99667.03
2023-02-04T16:12:15.506Z,99687.75
2023-02-04T16:17:01.804Z,99686.97
2023-02-04T16:19:29.459Z,99686.97
2023-02-04T16:21:56.613Z,99696.75
2023-02-04T16:24:23.832Z,99707.09
2023-02-04T16:26:51.254Z,99702.72
2023-02-04T16:29:18.384Z,99709.63
2023-02-04T16:31:45.612Z,99688.19
2023-02-04T16:34:13.119Z,99701.03
2023-02-04T16:36:40.382Z,99716.63
2023-02-04T16:39:07.472Z,99743.91
2023-02-04T16:41:34.967Z,99722.50
2023-02-04T16:44:02.070Z,99734.44
2023-02-04T16:46:30.573Z,99714.78
2023-02-04T16:48:58.397Z,99731.03
2023-02-04T16:52:53.666Z,99695.63
2023-02-04T16:55:21.191Z,99695.63
2023-02-04T16:57:48.375Z,99690.06
2023-02-04T17:00:15.782Z,99710.69
2023-02-04T17:02:43.217Z,99716.88
2023-02-04T17:05:10.354Z,99757.31
2023-02-04T17:07:37.728Z,99742.66
2023-02-04T17:10:15.976Z,99741.03
2023-02-04T17:12:43.355Z,99769.28
2023-02-04T17:15:11.463Z,99785.72
2023-02-04T17:17:38.676Z,99790.84
2023-02-04T17:20:06.243Z,99819.19
2023-02-04T17:22:33.390Z,99784.00
2023-02-04T17:27:11.997Z,99798.31
2023-02-04T17:29:39.395Z,99798.31
2023-02-04T17:32:07.706Z,99793.59
2023-02-04T17:34:34.809Z,99790.00
2023-02-04T17:37:02.125Z,99796.09
2023-02-04T17:39:29.330Z,99803.75
2023-02-04T17:41:56.335Z,99818.50
2023-02-04T17:44:26.695Z,99821.81
2023-02-04T17:46:54.763Z,99819.44
2023-02-04T17:49:21.849Z,99819.56
2023-02-04T17:51:49.336Z,99823.81
2023-02-04T17:54:16.460Z,99816.97
2023-02-04T17:56:43.454Z,99834.97
2023-02-04T17:59:11.425Z,99843.44
2023-02-04T18:02:53.981Z,99868.09
2023-02-04T18:05:26.440Z,99868.09
2023-02-04T18:08:05.927Z,99881.22
2023-02-04T18:10:36.414Z,99876.09
2023-02-04T18:13:30.536Z,99888.91
2023-02-04T18:16:03.830Z,99894.94
2023-02-04T18:18:38.586Z,99886.34
2023-02-04T18:21:14.972Z,99894.03
2023-02-04T18:23:42.974Z,99897.47
2023-02-04T18:26:16.573Z,99911.28
2023-02-04T18:28:46.211Z,99912.78
2023-02-04T18:31:37.421Z,99923.19
2023-02-04T18:34:20.430Z,99918.91
2023-02-04T18:36:48.558Z,99920.75
2023-02-04T18:39:26.645Z,99921.59
2023-02-04T18:41:54.617Z,99926.75
2023-02-04T18:44:26.329Z,99944.03
2023-02-04T18:46:53.916Z,99933.75
2023-02-04T18:49:35.615Z,99937.94
2023-02-04T18:52:15.413Z,99943.06
2023-02-04T18:54:46.416Z,99944.91
2023-02-04T18:57:13.654Z,99939.78
2023-02-04T18:59:41.360Z,99951.62
2023-02-04T19:02:29.083Z,99941.34
2023-02-04T19:05:12.622Z,99953.47
2023-02-04T19:07:40.635Z,99935.59
2023-02-04T19:10:24.506Z,99951.09
2023-02-04T19:12:53.360Z,99952.72
2023-02-04T19:15:52.996Z,99943.50
2023-02-04T19:18:23.873Z,99945.25
2023-02-04T19:20:51.058Z,99940.16
2023-02-04T19:23:20.807Z,99940.09
2023-02-04T19:25:52.086Z,99935.88
2023-02-04T19:28:30.558Z,99942.03
2023-02-04T19:31:05.756Z,99947.94
2023-02-04T19:33:42.734Z,99943.75
2023-02-04T19:36:31.571Z,99947.25
2023-02-04T19:39:05.189Z,99948.97
2023-02-04T19:41:54.510Z,99941.34
2023-02-04T19:44:30.225Z,99947.44
2023-02-04T19:46:58.024Z,99964.50
2023-02-04T19:49:29.065Z,99984.19
2023-02-04T19:51:57.987Z,99962.78
2023-02-04T19:54:37.875Z,99974.84
2023-02-04T19:57:26.392Z,99976.56
2023-02-04T19:59:56.856Z,99979.16
2023-02-04T20:02:38.357Z,99988.56
2023-02-04T20:05:19.526Z,99997.28
2023-02-04T20:07:46.807Z,100006.63
2023-02-04T20:10:28.570Z,99998.06
2023-02-04T20:13:00.927Z,99993.84
2023-02-04T20:15:28.891Z,99999.91
2023-02-04T20:17:58.015Z,99996.47
2023-02-04T20:20:30.505Z,99997.44
2023-02-04T20:23:29.944Z,99992.38
2023-02-04T20:25:57.237Z,99999.03
2023-02-04T20:28:41.973Z,99985.44
2023-02-04T20:31:25.564Z,99987.16
2023-02-04T20:33:59.290Z,99994.03
2023-02-04T20:36:27.303Z,99994.00
2023-02-04T20:39:07.736Z,99979.56
2023-02-04T20:41:37.296Z,99988.09
2023-02-04T20:44:24.901Z,99976.09
2023-02-04T20:46:51.991Z,99988.94
2023-02-04T20:49:24.402Z,100000.09
2023-02-04T20:51:59.259Z,99993.28
2023-02-04T20:54:30.343Z,99995.03
2023-02-04T20:57:11.285Z,99989.91
2023-02-04T20:59:38.796Z,99983.91
2023-02-04T21:02:16.886Z,99984.78
2023-02-04T21:04:51.833Z,99973.69
2023-02-04T21:07:23.205Z,99978.81
2023-02-04T21:09:51.720Z,99971.16
2023-02-04T21:12:19.322Z,99984.03
2023-02-04T21:14:46.506Z,99989.94
2023-02-04T21:17:14.317Z,99973.84
2023-02-04T21:19:41.397Z,99978.06
2023-02-04T21:22:08.409Z,99966.94
2023-02-04T21:24:35.978Z,99975.50
2023-02-04T21:27:03.093Z,99971.22
2023-02-04T21:29:30.232Z,99964.38
2023-02-04T21:31:59.737Z,99956.72
2023-02-04T21:34:26.872Z,99978.97
2023-02-04T21:36:53.973Z,99970.47
2023-02-04T21:39:21.704Z,99958.50
2023-02-04T21:42:08.726Z,99960.97
2023-02-04T21:44:37.327Z,99965.31
2023-02-04T21:47:04.642Z,99971.25
2023-02-04T21:49:31.747Z,99981.50
2023-02-04T21:51:59.155Z,99974.69
2023-02-04T21:54:26.551Z,99989.19
2023-02-04T21:56:53.630Z,99988.38
2023-02-04T21:59:22.493Z,99987.53
2023-02-04T22:01:49.583Z,99991.84
2023-02-04T22:04:17.013Z,99989.31
2023-02-04T22:06:44.263Z,99994.50
2023-02-04T22:09:11.364Z,100003.03
2023-02-04T22:11:38.871Z,99986.00
2023-02-04T22:14:06.552Z,99985.19
2023-02-04T22:16:34.098Z,99992.87
2023-02-04T22:19:01.505Z,99978.28
2023-02-04T22:21:28.667Z,99989.47
2023-02-04T22:23:55.856Z,99992.00
2023-02-04T22:26:23.251Z,99986.03
2023-02-04T22:28:50.360Z,99996.28
2023-02-04T22:31:18.011Z,99989.41
2023-02-04T22:33:45.960Z,99989.38
2023-02-04T22:36:13.079Z,100002.22
2023-02-04T22:38:40.177Z,99981.72
2023-02-04T22:41:08.833Z,99977.44
2023-02-04T22:43:36.688Z,99977.47
2023-02-04T22:46:03.830Z,99992.00
2023-02-04T22:48:31.223Z,99969.72
2023-02-04T22:50:58.396Z,99994.47
2023-02-04T22:53:25.500Z,99985.94
2023-02-04T22:55:52.879Z,99991.03
2023-02-04T22:58:19.959Z,99984.19
2023-02-04T23:00:47.142Z,99979.84
2023-02-04T23:03:14.559Z,99975.63
2023-02-04T23:05:41.656Z,99986.69
2023-02-04T23:08:08.996Z,99977.34
2023-02-04T23:10:38.664Z,99977.34
2023-02-04T23:13:06.254Z,99990.12
2023-02-04T23:15:33.637Z,99976.44
2023-02-04T23:18:01.237Z,99975.63
2023-02-04T23:20:28.318Z,99986.69
2023-02-04T23:22:55.511Z,99997.81
2023-02-04T23:25:23.323Z,99984.13
2023-02-04T23:27:50.553Z,99980.72
2023-02-04T23:30:18.556Z,99990.12
2023-02-04T23:32:46.142Z,99990.03
2023-02-04T23:35:13.310Z,99990.94
2023-02-04T23:37:40.378Z,99995.22
2023-02-04T23:40:08.375Z,99997.81
2023-02-04T23:42:35.488Z,99992.78
2023-02-04T23:45:02.608Z,99996.19
2023-02-04T23:47:30.049Z,100006.34
2023-02-04T23:49:57.154Z,100000.47
2023-02-04T23:52:24.523Z,100006.44
2023-02-04T23:54:52.604Z,100013.25
2023-02-04T23:57:19.707Z,100034.63
2023-02-04T23:59:46.945Z,100016.72
